Time;durP1;ratioP1;P1;durP2;ratioP2;P2;SDS_P1;SDS_P2;PMS_P1;PMS_P2;Temp;Humidity;BMP_temperature;BMP_pressure;BME280_temperature;BME280_humidity;BME280_pressure;Samples;Min_cycle;Max_cycle;Signal;HPM_P1;HPM_P2
2022/09/14 00:02:06;;;;;;;6.90;2.70;;;;;11.00;97202.60;;;;111028;1249;41152;-61
2022/09/14 00:04:37;;;;;;;5.70;2.40;;;;;11.00;97203.80;;;;111039;1248;42264;-61
2022/09/14 00:07:08;;;;;;;7.20;2.80;;;;;11.00;97202.00;;;;111106;1247;41137;-61
2022/09/14 00:09:38;;;;;;;7.30;2.90;;;;;10.96;97208.80;;;;111044;1249;41152;-60
2022/09/14 00:12:09;;;;;;;7.50;3.30;;;;;10.90;97208.40;;;;111101;1247;41153;-61
2022/09/14 00:14:39;;;;;;;;;;;;;10.82;97209.60;;;;111113;1248;41712;-61
2022/09/14 00:17:11;;;;;;;7.50;3.10;;;;;10.80;97208.60;;;;111100;1247;41256;-60
2022/09/14 00:19:40;;;;;;;5.70;2.50;;;;;10.80;97209.40;;;;111061;1248;41549;-60
2022/09/14 00:22:11;;;;;;;6.60;2.80;;;;;10.80;97214.20;;;;111054;1248;42541;-61
2022/09/14 00:24:42;;;;;;;6.60;2.70;;;;;10.80;97216.00;;;;110635;1250;42235;-61
2022/09/14 00:27:12;;;;;;;12.90;2.60;;;;;10.80;97215.20;;;;110863;1250;41206;-60
2022/09/14 00:29:43;;;;;;;6.00;2.30;;;;;10.80;97212.60;;;;110904;1250;41536;-60
2022/09/14 00:32:14;;;;;;;4.80;2.10;;;;;10.80;97216.20;;;;111104;1247;41191;-60
2022/09/14 00:34:45;;;;;;;6.20;2.40;;;;;10.74;97209.40;;;;111069;1248;41454;-61
2022/09/14 00:37:15;;;;;;;;;;;;;10.72;97212.80;;;;111223;1247;41602;-61
2022/09/14 00:39:46;;;;;;;7.90;2.10;;;;;10.70;97213.00;;;;110869;1250;41268;-61
2022/09/14 00:42:18;;;;;;;4.30;2.00;;;;;10.70;97219.00;;;;111054;1249;41629;-61
2022/09/14 00:44:49;;;;;;;5.00;1.90;;;;;10.70;97214.60;;;;111064;1250;42408;-61
2022/09/14 00:47:19;;;;;;;5.60;2.10;;;;;10.70;97205.20;;;;111068;1247;41825;-61
2022/09/14 00:49:49;;;;;;;3.40;1.80;;;;;10.70;97208.40;;;;111180;1247;41136;-60
2022/09/14 00:52:27;;;;;;;3.90;2.00;;;;;10.70;97206.60;;;;111023;1249;41515;-61
2022/09/14 00:55:02;;;;;;;4.30;2.00;;;;;10.60;97206.40;;;;110898;1250;41542;-60
2022/09/14 00:57:59;;;;;;;5.90;2.40;;;;;10.60;97201.20;;;;111002;1248;41139;-60
2022/09/14 01:00:30;;;;;;;5.00;2.10;;;;;10.60;97194.40;;;;110992;1250;41256;-60
2022/09/14 01:03:01;;;;;;;;;;;;;10.50;97193.40;;;;111065;1248;41330;-61
2022/09/14 01:05:53;;;;;;;4.30;1.90;;;;;10.44;97188.20;;;;111101;1247;41130;-60
2022/09/14 01:08:37;;;;;;;5.40;1.90;;;;;10.40;97186.60;;;;111026;1247;41149;-61
2022/09/14 01:11:27;;;;;;;3.10;1.80;;;;;10.40;97190.60;;;;111101;1247;42559;-61
2022/09/14 01:14:03;;;;;;;4.70;2.20;;;;;10.40;97187.80;;;;111018;1250;41869;-60
2022/09/14 01:16:37;;;;;;;4.80;2.00;;;;;10.30;97193.00;;;;110955;1248;42271;-60
2022/09/14 01:19:36;;;;;;;4.60;2.00;;;;;10.30;97196.80;;;;110842;1250;42675;-60
2022/09/14 01:22:17;;;;;;;3.40;1.80;;;;;10.26;97200.40;;;;110980;1248;41162;-61
2022/09/14 01:25:07;;;;;;;4.10;1.90;;;;;10.20;97196.80;;;;110734;1247;41185;-61
2022/09/14 01:27:40;;;;;;;4.40;1.90;;;;;10.20;97195.40;;;;110803;1250;42078;-63
2022/09/14 01:30:21;;;;;;;4.50;1.90;;;;;10.20;97189.80;;;;110975;1250;41146;-61
2022/09/14 01:33:03;;;;;;;4.50;2.00;;;;;10.16;97193.40;;;;110771;1250;41149;-62
2022/09/14 01:35:57;;;;;;;5.10;2.20;;;;;10.10;97186.00;;;;110791;1250;41173;-64
2022/09/14 01:38:37;;;;;;;4.00;2.00;;;;;10.10;97185.80;;;;110836;1251;41730;-62
2022/09/14 01:41:14;;;;;;;4.40;2.00;;;;;10.10;97180.40;;;;110605;1251;41174;-59
2022/09/14 01:43:56;;;;;;;4.50;2.00;;;;;10.10;97178.00;;;;110715;1251;41719;-60
2022/09/14 01:46:28;;;;;;;;;;;;;10.00;97175.00;;;;110959;1250;42026;-60
2022/09/14 01:49:05;;;;;;;8.30;3.00;;;;;9.90;97170.20;;;;110962;1249;41156;-61
2022/09/14 01:51:44;;;;;;;6.20;2.40;;;;;9.90;97165.40;;;;110931;1251;41171;-60
2022/09/14 01:54:40;;;;;;;6.90;2.10;;;;;9.90;97166.00;;;;110960;1250;41609;-61
2022/09/14 01:57:33;;;;;;;6.40;2.50;;;;;9.90;97160.80;;;;110982;1250;41254;-60
2022/09/14 02:00:09;;;;;;;6.60;2.40;;;;;9.80;97161.80;;;;110967;1250;41345;-60
2022/09/14 02:02:58;;;;;;;4.70;2.20;;;;;9.80;97157.20;;;;110907;1251;42186;-61
2022/09/14 02:05:35;;;;;;;5.40;2.00;;;;;9.70;97161.80;;;;110924;1251;41952;-60
2022/09/14 02:08:07;;;;;;;4.30;2.10;;;;;9.70;97164.80;;;;110618;1250;41210;-60
2022/09/14 02:10:36;;;;;;;;;;;;;9.70;97167.20;;;;110632;1251;41900;-61
2022/09/14 02:13:08;;;;;;;;;;;;;9.60;97162.40;;;;110725;1251;41267;-61
2022/09/14 02:15:38;;;;;;;5.10;1.90;;;;;9.60;97157.20;;;;110995;1251;42385;-61
2022/09/14 02:18:08;;;;;;;3.80;2.00;;;;;9.60;97159.40;;;;111046;1250;41614;-60
2022/09/14 02:20:50;;;;;;;5.30;2.20;;;;;9.58;97158.20;;;;111018;1251;42095;-61
2022/09/14 02:23:21;;;;;;;7.90;2.40;;;;;9.58;97159.60;;;;111189;1250;41455;-62
2022/09/14 02:25:51;;;;;;;6.90;2.50;;;;;9.50;97166.40;;;;111011;1250;41200;-61
2022/09/14 02:28:21;;;;;;;5.70;2.50;;;;;9.52;97164.00;;;;111096;1249;41267;-61
2022/09/14 02:31:23;;;;;;;5.80;2.20;;;;;9.50;97162.00;;;;111061;1247;41200;-61
2022/09/14 02:34:33;;;;;;;4.40;2.00;;;;;9.50;97161.40;;;;110817;1248;41345;-61
2022/09/14 02:37:22;;;;;;;5.80;1.80;;;;;9.50;97163.60;;;;111106;1248;41246;-61
2022/09/14 02:40:28;;;;;;;4.70;2.00;;;;;9.40;97164.00;;;;111051;1248;41653;-61
2022/09/14 02:43:19;;;;;;;5.40;2.10;;;;;9.40;97173.40;;;;111084;1250;41457;-61
2022/09/14 02:46:07;;;;;;;4.20;2.00;;;;;9.40;97178.60;;;;111119;1247;41939;-60
2022/09/14 02:49:11;;;;;;;4.10;2.10;;;;;9.30;97185.80;;;;111036;1249;41611;-61
2022/09/14 02:51:58;;;;;;;4.60;2.30;;;;;9.30;97178.00;;;;111004;1247;41135;-60
2022/09/14 02:54:34;;;;;;;7.50;2.80;;;;;9.30;97182.80;;;;111134;1247;41161;-60
2022/09/14 02:57:06;;;;;;;8.20;3.20;;;;;9.30;97185.80;;;;111124;1248;41241;-60
2022/09/14 02:59:35;;;;;;;7.40;3.00;;;;;9.20;97185.20;;;;111371;1248;41198;-60
2022/09/14 03:02:05;;;;;;;5.80;2.70;;;;;9.20;97180.40;;;;111238;1248;41751;-60
2022/09/14 03:04:35;;;;;;;4.80;2.30;;;;;9.20;97172.00;;;;111132;1249;41145;-60
2022/09/14 03:07:04;;;;;;;6.40;2.70;;;;;9.12;97170.60;;;;111202;1248;41246;-60
2022/09/14 03:09:34;;;;;;;5.20;2.40;;;;;9.10;97171.80;;;;111126;1250;41648;-60
2022/09/14 03:12:05;;;;;;;4.30;2.10;;;;;9.10;97171.00;;;;111044;1248;41149;-61
2022/09/14 03:14:34;;;;;;;5.70;2.40;;;;;9.02;97171.20;;;;111166;1248;41133;-61
2022/09/14 03:17:05;;;;;;;5.00;2.10;;;;;9.00;97172.40;;;;111186;1250;41523;-61
2022/09/14 03:19:36;;;;;;;5.00;2.00;;;;;9.00;97175.20;;;;111151;1248;41153;-60
2022/09/14 03:22:06;;;;;;;5.10;2.30;;;;;9.00;97176.00;;;;110981;1247;41154;-60
2022/09/14 03:24:36;;;;;;;4.40;1.90;;;;;9.00;97178.20;;;;111056;1247;41134;-61
2022/09/14 03:27:06;;;;;;;5.30;2.20;;;;;8.94;97178.80;;;;111116;1248;41152;-61
2022/09/14 03:29:36;;;;;;;6.30;2.80;;;;;8.90;97176.80;;;;111059;1247;41603;-61
2022/09/14 03:32:06;;;;;;;6.60;2.80;;;;;8.90;97174.80;;;;111113;1247;41162;-60
2022/09/14 03:34:36;;;;;;;7.00;2.60;;;;;8.90;97169.80;;;;111095;1250;41258;-61
2022/09/14 03:37:06;;;;;;;6.20;2.70;;;;;8.90;97171.20;;;;111037;1247;41255;-61
2022/09/14 03:39:35;;;;;;;6.30;2.60;;;;;8.80;97170.80;;;;111165;1248;41993;-60
2022/09/14 03:42:05;;;;;;;6.70;2.70;;;;;8.80;97166.20;;;;111194;1248;40898;-61
2022/09/14 03:44:34;;;;;;;6.70;2.80;;;;;8.80;97168.20;;;;111180;1247;41519;-60
2022/09/14 03:47:04;;;;;;;6.60;2.60;;;;;8.80;97172.80;;;;111155;1249;41549;-61
2022/09/14 03:49:34;;;;;;;6.10;2.60;;;;;8.74;97176.00;;;;111101;1250;41253;-61
2022/09/14 03:52:03;;;;;;;10.10;3.10;;;;;8.70;97175.60;;;;111142;1247;41940;-61
2022/09/14 03:54:33;;;;;;;19.40;3.30;;;;;8.70;97175.60;;;;111208;1247;41133;-61
2022/09/14 03:57:02;;;;;;;5.20;2.70;;;;;8.60;97177.00;;;;111232;1248;41158;-61
2022/09/14 03:59:32;;;;;;;9.70;3.10;;;;;8.60;97177.80;;;;111214;1249;41121;-60
2022/09/14 04:02:02;;;;;;;7.60;2.60;;;;;8.58;97177.80;;;;111115;1250;41635;-61
2022/09/14 04:04:31;;;;;;;5.90;2.20;;;;;8.60;97184.60;;;;111037;1250;41232;-61
2022/09/14 04:07:00;;;;;;;5.00;2.10;;;;;8.60;97181.20;;;;111159;1250;40863;-60
2022/09/14 04:09:29;;;;;;;6.30;2.60;;;;;8.60;97181.00;;;;111090;1248;41553;-60
2022/09/14 04:11:59;;;;;;;4.60;2.20;;;;;8.60;97178.60;;;;111157;1247;41143;-60
2022/09/14 04:14:29;;;;;;;4.40;2.10;;;;;8.70;97184.80;;;;111147;1247;41248;-60
2022/09/14 04:16:59;;;;;;;4.90;2.20;;;;;8.74;97178.60;;;;111169;1248;41728;-60
2022/09/14 04:19:28;;;;;;;5.60;2.50;;;;;8.80;97162.00;;;;111061;1249;41144;-61
2022/09/14 04:21:57;;;;;;;5.30;2.30;;;;;9.00;97145.80;;;;111179;1247;41619;-60
2022/09/14 04:24:26;;;;;;;5.20;2.20;;;;;9.20;97171.00;;;;111193;1250;41510;-62
2022/09/14 04:26:58;;;;;;;4.70;2.10;;;;;9.30;97162.80;;;;111240;1248;41153;-62
2022/09/14 04:29:29;;;;;;;5.10;2.30;;;;;9.50;97156.40;;;;111075;1250;41607;-61
2022/09/14 04:31:58;;;;;;;4.60;2.10;;;;;9.60;97173.00;;;;111141;1250;41174;-61
2022/09/14 04:34:27;;;;;;;5.30;2.30;;;;;9.80;97164.40;;;;111160;1248;41305;-61
2022/09/14 04:36:56;;;;;;;6.70;2.80;;;;;10.10;97152.20;;;;111115;1247;41318;-62
2022/09/14 04:39:26;;;;;;;6.00;2.50;;;;;10.50;97150.60;;;;111086;1250;41137;-61
2022/09/14 04:41:56;;;;;;;4.70;2.30;;;;;10.94;97139.00;;;;111095;1250;41265;-61
2022/09/14 04:44:26;;;;;;;5.00;2.40;;;;;11.70;97134.80;;;;111061;1250;41125;-61
2022/09/14 04:47:01;;;;;;;5.30;2.20;;;;;12.40;97137.60;;;;111114;1250;41156;-60
2022/09/14 04:49:37;;;;;;;5.40;2.40;;;;;12.90;97142.40;;;;111068;1248;41586;-61
2022/09/14 04:52:14;;;;;;;3.70;2.00;;;;;13.30;97139.00;;;;111134;1250;40724;-61
2022/09/14 04:54:49;;;;;;;5.50;2.30;;;;;13.50;97160.40;;;;111086;1248;42395;-61
2022/09/14 04:57:31;;;;;;;6.40;2.60;;;;;13.60;97161.80;;;;111165;1249;41148;-61
2022/09/14 05:00:10;;;;;;;5.40;2.30;;;;;13.70;97162.40;;;;111124;1247;41648;-61
2022/09/14 05:02:46;;;;;;;5.70;2.20;;;;;13.80;97169.60;;;;111100;1248;41199;-61
2022/09/14 05:05:22;;;;;;;5.80;2.50;;;;;13.90;97173.00;;;;111124;1250;41697;-60
2022/09/14 05:07:58;;;;;;;5.80;2.60;;;;;14.20;97179.80;;;;111148;1249;40908;-61
2022/09/14 05:10:33;;;;;;;4.60;2.10;;;;;14.30;97185.40;;;;111140;1247;41860;-61
2022/09/14 05:13:07;;;;;;;4.90;2.00;;;;;14.30;97188.40;;;;111144;1247;41190;-61
2022/09/14 05:15:41;;;;;;;10.70;3.30;;;;;14.30;97191.40;;;;111169;1249;41610;-61
2022/09/14 05:18:11;;;;;;;8.60;3.70;;;;;14.02;97186.60;;;;111213;1250;41395;-61
2022/09/14 05:20:42;;;;;;;9.90;4.00;;;;;13.34;97187.00;;;;111296;1248;41224;-62
2022/09/14 05:23:20;;;;;;;11.20;4.10;;;;;13.06;97175.00;;;;111366;1249;41121;-61
2022/09/14 05:25:52;;;;;;;10.10;5.00;;;;;13.42;97155.20;;;;111205;1250;41153;-61
2022/09/14 05:28:21;;;;;;;19.50;5.10;;;;;14.24;97150.20;;;;111125;1247;42307;-61
2022/09/14 05:30:56;;;;;;;10.20;4.50;;;;;15.28;97140.60;;;;109944;1250;41460;-61
2022/09/14 05:33:30;;;;;;;15.30;5.30;;;;;16.36;97146.60;;;;111237;1249;41399;-61
2022/09/14 05:36:05;;;;;;;14.20;4.70;;;;;17.40;97141.20;;;;111253;1248;41239;-62
2022/09/14 05:38:36;;;;;;;9.80;4.10;;;;;18.00;97159.80;;;;111158;1250;41373;-62
2022/09/14 05:41:06;;;;;;;11.00;4.00;;;;;18.28;97158.00;;;;111343;1248;41234;-62
2022/09/14 05:43:35;;;;;;;9.70;3.90;;;;;18.70;97147.00;;;;111274;1250;41167;-62
2022/09/14 05:46:07;;;;;;;12.30;3.20;;;;;19.50;97148.60;;;;111248;1250;41609;-62
2022/09/14 05:48:38;;;;;;;10.10;3.60;;;;;20.34;97143.80;;;;111120;1250;41522;-62
2022/09/14 05:51:15;;;;;;;7.60;3.40;;;;;21.02;97141.20;;;;111296;1248;42546;-60
2022/09/14 05:53:48;;;;;;;7.40;3.10;;;;;21.70;97146.80;;;;111280;1248;41149;-60
2022/09/14 05:56:18;;;;;;;8.80;3.00;;;;;22.30;97148.20;;;;111228;1250;41182;-62
2022/09/14 05:58:47;;;;;;;6.80;2.80;;;;;22.70;97145.60;;;;111299;1248;41264;-62
2022/09/14 06:01:21;;;;;;;6.80;2.80;;;;;23.10;97151.00;;;;111157;1247;42305;-63
2022/09/14 06:04:02;;;;;;;4.20;2.10;;;;;23.32;97158.80;;;;111216;1250;41132;-62
2022/09/14 06:06:32;;;;;;;8.60;2.60;;;;;23.80;97160.00;;;;111399;1249;41607;-63
2022/09/14 06:09:06;;;;;;;4.90;2.20;;;;;24.16;97158.60;;;;111331;1248;42014;-64
2022/09/14 06:11:46;;;;;;;5.30;2.10;;;;;24.40;97158.00;;;;111278;1248;41142;-63
2022/09/14 06:14:18;;;;;;;6.70;2.60;;;;;24.60;97155.40;;;;111151;1248;42509;-62
2022/09/14 06:16:52;;;;;;;6.30;2.40;;;;;24.70;97160.40;;;;111448;1247;42201;-63
2022/09/14 06:19:29;;;;;;;5.70;2.20;;;;;25.10;97149.80;;;;111143;1248;41600;-63
2022/09/14 06:21:59;;;;;;;6.30;2.30;;;;;24.84;97154.40;;;;111093;1248;41913;-62
2022/09/14 06:24:30;;;;;;;5.80;2.10;;;;;24.44;97156.00;;;;111208;1249;41197;-63
2022/09/14 06:27:18;;;;;;;7.30;2.40;;;;;24.72;97153.20;;;;111002;1249;41540;-63
2022/09/14 06:29:52;;;;;;;4.20;1.90;;;;;25.00;97157.40;;;;111143;1250;41324;-63
2022/09/14 06:32:22;;;;;;;6.40;2.10;;;;;25.44;97158.60;;;;111189;1249;41321;-62
2022/09/14 06:35:03;;;;;;;3.80;1.90;;;;;25.70;97158.60;;;;110780;1251;41950;-61
2022/09/14 06:37:36;;;;;;;5.80;2.10;;;;;25.70;97147.60;;;;111082;1250;41154;-63
2022/09/14 06:40:09;;;;;;;5.80;2.10;;;;;25.90;97150.00;;;;111165;1248;41151;-62
2022/09/14 06:42:45;;;;;;;5.70;2.20;;;;;26.30;97156.60;;;;111160;1247;41190;-63
2022/09/14 06:45:19;;;;;;;3.90;1.90;;;;;26.50;97156.80;;;;111134;1250;41149;-62
2022/09/14 06:47:48;;;;;;;8.40;2.60;;;;;26.60;97155.80;;;;111093;1250;41148;-63
2022/09/14 06:50:17;;;;;;;3.60;1.70;;;;;25.94;97152.40;;;;111121;1247;42049;-63
2022/09/14 06:52:45;;;;;;;4.40;1.60;;;;;25.10;97160.40;;;;111174;1249;41149;-63
2022/09/14 06:55:15;;;;;;;3.70;1.80;;;;;25.04;97160.40;;;;111148;1251;41650;-63
2022/09/14 06:57:47;;;;;;;4.20;1.80;;;;;25.36;97159.60;;;;111064;1250;41708;-63
2022/09/14 07:00:18;;;;;;;4.40;1.80;;;;;25.68;97158.40;;;;111104;1249;41155;-64
2022/09/14 07:02:46;;;;;;;3.20;1.60;;;;;25.90;97153.20;;;;111095;1251;42301;-63
2022/09/14 07:05:19;;;;;;;4.40;1.80;;;;;26.28;97156.00;;;;110986;1251;41179;-64
2022/09/14 07:07:52;;;;;;;4.40;1.80;;;;;25.80;97154.80;;;;111087;1250;41155;-63
2022/09/14 07:10:21;;;;;;;6.10;2.00;;;;;25.60;97154.40;;;;111146;1247;42357;-64
2022/09/14 07:12:50;;;;;;;3.70;1.70;;;;;25.56;97158.00;;;;111101;1249;41188;-64
2022/09/14 07:15:19;;;;;;;5.80;2.00;;;;;25.50;97157.40;;;;111065;1247;41245;-64
2022/09/14 07:17:47;;;;;;;3.70;1.70;;;;;25.80;97159.40;;;;111056;1249;41561;-64
2022/09/14 07:20:17;;;;;;;6.60;2.10;;;;;24.54;97170.80;;;;111278;1250;41207;-64
2022/09/14 07:22:46;;;;;;;4.40;2.00;;;;;25.14;97170.20;;;;111147;1248;41206;-65
2022/09/14 07:25:15;;;;;;;3.70;1.70;;;;;24.96;97178.20;;;;111168;1249;41150;-64
2022/09/14 07:27:45;;;;;;;4.00;1.80;;;;;25.00;97170.40;;;;110900;1250;41271;-64
2022/09/14 07:30:13;;;;;;;4.10;1.80;;;;;24.46;97166.60;;;;111202;1249;41171;-64
2022/09/14 07:32:42;;;;;;;5.60;1.80;;;;;24.68;97161.80;;;;111201;1248;41261;-63
2022/09/14 07:35:11;;;;;;;4.90;2.00;;;;;24.60;97156.60;;;;111355;1250;41276;-63
2022/09/14 07:37:39;;;;;;;4.00;1.80;;;;;24.38;97162.00;;;;111053;1247;41268;-63
2022/09/14 07:40:09;;;;;;;5.10;1.90;;;;;24.22;97167.20;;;;111189;1250;41953;-64
2022/09/14 07:42:39;;;;;;;5.60;1.90;;;;;24.24;97163.80;;;;111192;1247;42085;-63
2022/09/14 07:45:08;;;;;;;3.00;1.60;;;;;24.50;97159.80;;;;111189;1250;41111;-64
2022/09/14 07:47:40;;;;;;;3.70;1.80;;;;;24.70;97164.40;;;;111250;1248;41143;-63
2022/09/14 07:50:13;;;;;;;3.60;1.70;;;;;24.80;97167.80;;;;111201;1248;41404;-64
2022/09/14 07:52:43;;;;;;;5.50;1.70;;;;;25.30;97166.80;;;;111090;1250;41127;-63
2022/09/14 07:55:13;;;;;;;6.10;1.90;;;;;25.70;97170.40;;;;111117;1247;41159;-64
2022/09/14 07:57:43;;;;;;;5.50;2.10;;;;;25.60;97173.40;;;;110779;1251;41919;-63
2022/09/14 08:00:37;;;;;;;4.90;1.70;;;;;25.38;97172.40;;;;111127;1248;41264;-64
2022/09/14 08:03:07;;;;;;;3.90;1.70;;;;;25.54;97173.20;;;;111154;1250;41153;-62
2022/09/14 08:05:36;;;;;;;;;;;;;25.70;97174.40;;;;111104;1249;41263;-62
2022/09/14 08:08:05;;;;;;;6.50;1.90;;;;;25.40;97170.20;;;;111095;1250;41146;-63
2022/09/14 08:10:36;;;;;;;4.70;1.80;;;;;25.18;97168.20;;;;111090;1250;41260;-63
2022/09/14 08:13:10;;;;;;;4.50;1.80;;;;;24.68;97171.60;;;;111226;1247;41183;-64
2022/09/14 08:15:38;;;;;;;4.10;1.70;;;;;23.94;97181.60;;;;111062;1250;41259;-64
2022/09/14 08:18:07;;;;;;;4.20;1.60;;;;;24.42;97175.20;;;;111068;1250;41454;-64
2022/09/14 08:20:36;;;;;;;4.80;1.60;;;;;24.82;97167.60;;;;111055;1251;41131;-63
2022/09/14 08:23:05;;;;;;;4.70;1.80;;;;;25.62;97158.60;;;;111074;1250;41234;-63
2022/09/14 08:25:36;;;;;;;3.50;1.70;;;;;26.42;97149.00;;;;111152;1248;41275;-64
2022/09/14 08:28:09;;;;;;;3.10;1.50;;;;;27.14;97140.40;;;;111136;1247;41298;-63
2022/09/14 08:30:38;;;;;;;4.40;1.60;;;;;27.66;97142.00;;;;111242;1247;41135;-63
2022/09/14 08:33:07;;;;;;;3.00;1.50;;;;;28.60;97137.00;;;;111103;1247;41687;-63
2022/09/14 08:35:43;;;;;;;2.90;1.50;;;;;29.00;97134.80;;;;111070;1250;41248;-63
2022/09/14 08:38:24;;;;;;;3.30;1.50;;;;;29.20;97137.40;;;;111062;1250;41157;-63
2022/09/14 08:40:54;;;;;;;4.90;1.70;;;;;29.90;97130.80;;;;111160;1250;42072;-63
2022/09/14 08:43:24;;;;;;;4.30;1.70;;;;;30.08;97127.80;;;;111120;1248;41164;-63
2022/09/14 08:45:59;;;;;;;2.60;1.50;;;;;29.76;97128.60;;;;111053;1249;41244;-63
2022/09/14 08:48:43;;;;;;;3.40;1.40;;;;;30.10;97126.40;;;;111063;1250;41278;-63
2022/09/14 08:51:11;;;;;;;2.20;1.40;;;;;30.46;97122.40;;;;111071;1248;41145;-64
2022/09/14 08:53:41;;;;;;;3.20;1.50;;;;;31.00;97120.80;;;;111056;1250;41339;-63
2022/09/14 08:56:33;;;;;;;4.00;1.50;;;;;29.78;97120.60;;;;111096;1249;42057;-64
2022/09/14 08:59:26;;;;;;;4.40;1.60;;;;;31.30;97108.20;;;;110662;1250;42538;-63
2022/09/14 09:02:11;;;;;;;3.80;1.50;;;;;30.90;97108.80;;;;111060;1250;41125;-64
2022/09/14 09:05:06;;;;;;;4.50;1.50;;;;;30.98;97119.60;;;;111063;1251;41184;-63
2022/09/14 09:07:54;;;;;;;5.10;1.90;;;;;31.18;97124.80;;;;111012;1248;41689;-63
2022/09/14 09:10:24;;;;;;;2.40;1.30;;;;;30.00;97127.60;;;;111063;1250;41138;-64
2022/09/14 09:12:54;;;;;;;;;;;;;31.02;97127.80;;;;111062;1249;41602;-64
2022/09/14 09:15:28;;;;;;;4.80;1.50;;;;;31.92;97130.00;;;;110787;1250;41137;-65
2022/09/14 09:18:16;;;;;;;4.20;1.50;;;;;32.12;97136.60;;;;111025;1249;41248;-64
2022/09/14 09:20:49;;;;;;;8.60;2.00;;;;;32.22;97135.80;;;;111067;1250;41766;-64
2022/09/14 09:23:23;;;;;;;3.20;1.50;;;;;31.50;97134.40;;;;111052;1247;41142;-64
2022/09/14 09:25:58;;;;;;;5.00;1.60;;;;;31.30;97133.20;;;;111050;1251;41161;-64
2022/09/14 09:28:28;;;;;;;2.30;1.30;;;;;31.72;97132.80;;;;111048;1251;41892;-64
2022/09/14 09:31:05;;;;;;;4.70;1.60;;;;;31.18;97125.80;;;;111035;1248;41121;-64
2022/09/14 09:33:59;;;;;;;4.90;1.30;;;;;31.02;97108.20;;;;110933;1250;41733;-64
2022/09/14 09:36:35;;;;;;;4.40;1.60;;;;;29.88;97099.40;;;;110733;1251;41603;-64
2022/09/14 09:39:04;;;;;;;3.30;1.40;;;;;30.12;97100.00;;;;110932;1250;41768;-64
2022/09/14 09:41:56;;;;;;;3.50;1.60;;;;;30.74;97103.40;;;;111083;1250;41527;-63
2022/09/14 09:44:25;;;;;;;3.10;1.50;;;;;31.30;97107.80;;;;111012;1248;41236;-64
2022/09/14 09:46:58;;;;;;;5.40;1.40;;;;;31.36;97110.80;;;;111047;1248;41162;-64
2022/09/14 09:49:37;;;;;;;2.30;1.30;;;;;31.50;97111.80;;;;110759;1248;42143;-64
2022/09/14 09:52:10;;;;;;;2.90;1.40;;;;;32.20;97108.00;;;;111049;1248;42229;-64
2022/09/14 09:54:41;;;;;;;2.80;1.30;;;;;32.32;97099.60;;;;111067;1250;41436;-64
2022/09/14 09:57:34;;;;;;;2.90;1.50;;;;;32.72;97102.00;;;;111057;1248;41178;-64
2022/09/14 10:00:12;;;;;;;4.30;1.50;;;;;33.32;97099.60;;;;110948;1247;41604;-63
2022/09/14 10:02:41;;;;;;;2.40;1.20;;;;;32.88;97098.80;;;;111062;1248;41257;-63
2022/09/14 10:05:13;;;;;;;1.80;1.20;;;;;33.26;97092.60;;;;110719;1248;41243;-63
2022/09/14 10:07:52;;;;;;;4.30;1.40;;;;;31.84;97095.80;;;;111019;1248;41721;-63
2022/09/14 10:10:33;;;;;;;2.00;1.40;;;;;30.90;97093.40;;;;111117;1249;41313;-64
2022/09/14 10:13:10;;;;;;;2.20;1.20;;;;;31.56;97090.00;;;;111067;1247;41477;-64
2022/09/14 10:15:39;;;;;;;1.90;1.30;;;;;31.06;97087.60;;;;110832;1250;42349;-64
2022/09/14 10:18:16;;;;;;;2.20;1.20;;;;;30.72;97077.80;;;;111025;1248;41344;-63
2022/09/14 10:20:52;;;;;;;2.20;1.40;;;;;31.32;97078.40;;;;110736;1250;41256;-63
2022/09/14 10:23:26;;;;;;;2.50;1.40;;;;;31.60;97071.40;;;;111085;1249;41413;-63
2022/09/14 10:26:24;;;;;;;2.90;1.50;;;;;31.56;97072.40;;;;111004;1248;43101;-64
2022/09/14 10:28:53;;;;;;;2.60;1.30;;;;;31.66;97078.20;;;;110576;1250;41273;-64
2022/09/14 10:31:29;;;;;;;4.00;1.30;;;;;30.40;97081.80;;;;110976;1250;41263;-64
2022/09/14 10:33:59;;;;;;;3.80;1.50;;;;;30.80;97073.20;;;;111091;1248;41177;-64
2022/09/14 10:36:31;;;;;;;2.40;1.20;;;;;30.24;97073.60;;;;111016;1250;41255;-64
2022/09/14 10:39:28;;;;;;;2.60;1.30;;;;;31.36;97075.60;;;;110968;1248;41203;-65
2022/09/14 10:42:14;;;;;;;2.60;1.30;;;;;32.06;97074.20;;;;111051;1248;41265;-64
2022/09/14 10:44:44;;;;;;;3.10;1.20;;;;;31.68;97065.00;;;;110856;1250;41610;-64
2022/09/14 10:47:34;;;;;;;2.90;1.30;;;;;32.18;97060.40;;;;111102;1250;42035;-65
2022/09/14 10:50:21;;;;;;;;;;;;;32.24;97050.80;;;;111178;1247;41138;-64
2022/09/14 10:53:02;;;;;;;2.90;1.40;;;;;32.64;97049.80;;;;111174;1247;41151;-64
2022/09/14 10:55:41;;;;;;;2.20;1.40;;;;;31.52;97047.40;;;;111058;1247;41132;-63
2022/09/14 10:58:40;;;;;;;3.40;1.50;;;;;30.32;97048.00;;;;111049;1248;41253;-63
2022/09/14 11:01:30;;;;;;;2.60;1.40;;;;;29.02;97047.20;;;;111097;1247;41275;-64
2022/09/14 11:04:32;;;;;;;2.90;1.30;;;;;28.30;97050.20;;;;111113;1248;41149;-64
2022/09/14 11:07:26;;;;;;;3.50;1.20;;;;;28.10;97049.60;;;;111072;1250;41297;-64
2022/09/14 11:09:58;;;;;;;4.40;1.60;;;;;27.94;97046.60;;;;111072;1248;41162;-64
2022/09/14 11:12:29;;;;;;;2.80;1.50;;;;;28.10;97049.60;;;;110964;1248;41143;-64
2022/09/14 11:15:19;;;;;;;2.90;1.50;;;;;28.20;97057.40;;;;111060;1248;41140;-64
2022/09/14 11:18:06;;;;;;;1.90;1.30;;;;;28.70;97052.60;;;;111123;1248;41275;-64
2022/09/14 11:21:22;;;;;;;2.40;1.30;;;;;29.20;97048.00;;;;111085;1250;41403;-64
2022/09/14 11:24:06;;;;;;;2.60;1.30;;;;;29.00;97040.80;;;;110296;1257;41371;-64
2022/09/14 11:26:44;;;;;;;5.40;1.40;;;;;28.98;97040.20;;;;110230;1256;41454;-64
2022/09/14 11:29:28;;;;;;;3.70;1.50;;;;;28.66;97037.00;;;;110514;1253;42238;-64
2022/09/14 11:32:04;;;;;;;2.70;1.30;;;;;28.80;97036.20;;;;110840;1250;41157;-64
2022/09/14 11:35:18;;;;;;;3.90;1.50;;;;;28.42;97037.80;;;;110699;1250;41596;-64
2022/09/14 11:38:02;;;;;;;3.20;1.50;;;;;28.32;97034.40;;;;110928;1251;41580;-64
2022/09/14 11:40:54;;;;;;;2.70;1.40;;;;;27.60;97032.60;;;;110987;1251;41436;-64
2022/09/14 11:43:30;;;;;;;1.80;1.40;;;;;27.10;97033.00;;;;110850;1250;41256;-63
2022/09/14 11:46:11;;;;;;;2.60;1.30;;;;;27.10;97027.60;;;;110654;1251;41239;-63
2022/09/14 11:48:49;;;;;;;4.50;1.40;;;;;27.18;97029.80;;;;110781;1252;41542;-63
2022/09/14 11:51:24;;;;;;;2.60;1.30;;;;;27.30;97026.00;;;;110800;1250;41267;-63
2022/09/14 11:53:53;;;;;;;2.80;1.30;;;;;27.38;97026.60;;;;110944;1251;41192;-63
2022/09/14 11:56:26;;;;;;;3.30;1.40;;;;;27.26;97006.80;;;;110730;1251;41623;-64
2022/09/14 11:59:05;;;;;;;3.60;1.70;;;;;27.10;97011.80;;;;110781;1250;41180;-63
2022/09/14 12:01:38;;;;;;;4.50;1.50;;;;;26.80;97020.60;;;;110832;1251;41728;-64
2022/09/14 12:04:12;;;;;;;3.40;1.60;;;;;26.36;97012.00;;;;110768;1251;41434;-64
2022/09/14 12:06:42;;;;;;;2.70;1.40;;;;;26.20;97019.20;;;;111057;1249;41143;-64
2022/09/14 12:09:20;;;;;;;4.40;1.80;;;;;25.80;97020.60;;;;110861;1251;41824;-62
2022/09/14 12:11:50;;;;;;;4.40;1.70;;;;;25.60;97017.60;;;;110599;1251;41974;-63
2022/09/14 12:14:29;;;;;;;;;;;;;25.30;97019.80;;;;110698;1251;41191;-63
2022/09/14 12:17:22;;;;;;;5.50;2.10;;;;;25.00;97009.00;;;;110766;1249;41352;-63
2022/09/14 12:20:33;;;;;;;6.70;2.00;;;;;24.68;97005.20;;;;110929;1250;41633;-63
2022/09/14 12:23:26;;;;;;;4.80;1.60;;;;;24.42;97004.00;;;;110913;1250;41157;-64
2022/09/14 12:26:05;;;;;;;2.60;1.40;;;;;24.30;97017.20;;;;110921;1251;41254;-63
2022/09/14 12:28:36;;;;;;;4.80;1.80;;;;;24.38;97023.60;;;;111096;1247;41122;-63
2022/09/14 12:31:07;;;;;;;5.00;1.90;;;;;24.50;97017.20;;;;111144;1247;42228;-63
2022/09/14 12:33:36;;;;;;;4.30;1.80;;;;;24.90;97019.60;;;;111136;1249;41251;-63
2022/09/14 12:36:11;;;;;;;3.80;1.60;;;;;25.30;97011.40;;;;111108;1248;41171;-63
2022/09/14 12:38:41;;;;;;;3.50;1.40;;;;;25.80;97011.20;;;;111114;1247;41261;-64
2022/09/14 12:41:09;;;;;;;5.10;1.80;;;;;26.00;97016.40;;;;111181;1248;41721;-63
2022/09/14 12:43:38;;;;;;;3.90;1.60;;;;;25.96;97021.40;;;;111059;1248;41155;-63
2022/09/14 12:46:20;;;;;;;2.80;1.40;;;;;25.68;97018.00;;;;111200;1248;41240;-64
2022/09/14 12:48:50;;;;;;;3.00;1.50;;;;;25.60;97023.80;;;;111021;1250;41135;-64
2022/09/14 12:51:31;;;;;;;2.90;1.50;;;;;25.70;97022.60;;;;111195;1250;41123;-64
2022/09/14 12:54:06;;;;;;;3.40;1.70;;;;;25.80;97031.00;;;;111190;1248;40742;-64
2022/09/14 12:56:35;;;;;;;3.20;1.40;;;;;25.90;97025.40;;;;111079;1247;42062;-63